Fabian Garcia SC

2020-09-27 21:10:00

  • imperial
Date Time Air Temperature Relative Humidity Dewpoint Windchill Heat Index Wind Speed Wind Dir. Rain Solar Radiation Soil Temperature
2m 2m 3m 3m 10cm
US/Mountain F % F F F MPH deg in MJ/m^2 F
max avg avg
2020-09-26 21:25:00 79.4 21.7 36.9 79.4 79.4 1.7 2.6 1.9 193.9 168.3 0.00 0.0000000 74.7
2020-09-26 21:30:00 79.0 22.5 37.5 79.0 79.0 2.4 2.8 1.8 154.3 169.7 0.00 0.0000000 74.6
2020-09-26 21:35:00 78.7 22.3 37.0 78.7 78.7 1.7 2.4 2.0 175.4 165.1 0.00 0.0000000 74.6
2020-09-26 21:40:00 78.1 23.0 37.2 78.1 78.1 0.8 1.9 1.2 107.6 154.5 0.00 0.0000000 74.5
2020-09-26 21:45:00 77.8 23.3 37.4 77.8 77.8 2.1 2.6 1.4 130.7 141.8 0.00 0.0000000 74.4
2020-09-26 21:50:00 77.7 23.2 37.1 77.7 77.7 0.0 2.4 1.4 134.9 141.3 0.00 0.0000000 74.3
2020-09-26 21:55:00 77.6 22.8 36.7 77.6 77.6 3.7 3.7 1.7 157.1 149.7 0.00 0.0000101 74.2
2020-09-26 22:00:00 78.2 22.7 37.0 78.2 78.2 2.1 4.0 2.5 156.5 139.0 0.00 0.0000242 74.2
2020-09-26 22:05:00 78.0 22.8 37.1 78.0 78.0 1.7 3.1 1.8 125.6 144.7 0.00 0.0000242 74.1
2020-09-26 22:10:00 77.8 22.8 36.8 77.8 77.8 2.1 2.6 1.9 167.7 147.9 0.00 0.0000323 74.1
2020-09-26 22:15:00 77.3 23.0 36.6 77.3 77.3 2.6 3.3 1.7 144.9 148.5 0.00 0.0000485 74.0
2020-09-26 22:20:00 76.9 23.7 37.1 76.9 76.9 0.0 2.4 1.5 145.5 140.1 0.00 0.0000444 73.9
2020-09-26 22:25:00 76.6 24.0 37.1 76.6 76.6 1.7 2.8 1.7 143.9 143.4 0.00 0.0000323 73.9
2020-09-26 22:30:00 76.3 23.8 36.6 76.3 76.3 2.2 2.6 2.0 145.2 138.5 0.00 0.0000242 73.8
2020-09-26 22:35:00 76.3 23.7 36.5 76.3 76.3 1.9 2.8 1.7 114.6 127.1 0.00 0.0000303 73.7
2020-09-26 22:40:00 76.4 23.6 36.5 76.4 76.4 0.0 2.8 1.8 115.0 124.1 0.00 0.0000283 73.7
2020-09-26 22:45:00 76.2 24.1 36.8 76.2 76.2 1.5 2.4 1.6 126.6 132.0 0.00 0.0000263 73.6
2020-09-26 22:50:00 76.2 23.9 36.6 76.2 76.2 1.2 2.8 1.0 125.4 114.1 0.00 0.0000141 73.5
2020-09-26 22:55:00 76.0 26.2 38.9 76.0 76.0 0.0 2.8 0.9 216.2 136.6 0.00 0.0000101 73.5
2020-09-26 23:00:00 75.2 25.8 37.8 75.2 75.2 1.3 1.9 0.3 154.7 135.0 0.00 0.0000020 73.4
2020-09-26 23:05:00 74.5 26.4 37.8 74.5 74.5 2.1 2.8 1.3 163.5 156.9 0.00 0.0000061 73.3
2020-09-26 23:10:00 74.0 27.1 38.0 74.0 74.0 2.1 2.6 1.8 125.6 153.8 0.00 0.0000000 73.3
2020-09-26 23:15:00 74.4 26.3 37.6 74.4 74.4 1.9 3.5 2.6 137.3 156.9 0.00 0.0000000 73.2
2020-09-26 23:20:00 74.4 27.7 38.8 74.4 74.4 1.0 3.1 2.1 171.5 187.8 0.00 0.0000020 73.1
2020-09-26 23:25:00 73.9 27.3 38.1 73.9 73.9 1.2 1.7 0.7 140.6 140.8 0.00 0.0000000 73.1
2020-09-26 23:30:00 73.8 27.3 38.0 73.8 73.8 1.9 3.1 1.3 104.5 141.5 0.00 0.0000000 73.0
2020-09-26 23:35:00 73.7 27.7 38.3 73.7 73.7 0.0 1.9 0.5 107.5 144.3 0.00 0.0000000 72.9
2020-09-26 23:40:00 73.5 26.1 36.6 73.5 73.5 3.1 4.6 2.3 107.0 103.1 0.00 0.0000000 72.9
2020-09-26 23:45:00 74.2 25.5 36.6 74.2 74.2 1.5 5.5 3.2 159.7 145.6 0.00 0.0000000 72.8
2020-09-26 23:50:00 73.9 26.2 37.0 73.9 73.9 1.0 5.1 2.2 178.9 200.1 0.00 0.0000000 72.8
2020-09-26 23:55:00 74.7 25.3 36.8 74.7 74.7 3.5 4.9 2.5 30.2 88.9 0.00 0.0000000 72.7
2020-09-27 00:00:00 75.6 23.1 35.3 75.6 75.6 2.1 5.8 3.5 311.0 201.8 0.00 0.0000000 72.6
2020-09-27 00:05:00 76.1 24.3 37.0 76.1 76.1 2.4 3.1 1.5 211.7 216.1 0.00 0.0000000 72.6
2020-09-27 00:10:00 76.2 23.4 36.1 76.2 76.2 1.3 3.5 2.0 267.9 211.7 0.00 0.0000000 72.5
2020-09-27 00:15:00 75.9 23.3 35.7 75.9 75.9 3.3 4.4 1.7 288.7 259.5 0.00 0.0000000 72.5
2020-09-27 00:20:00 76.7 21.7 34.6 76.7 76.7 1.2 2.8 0.5 3.3 342.6 0.00 0.0000000 72.4
2020-09-27 00:25:00 77.7 21.2 34.8 77.7 77.7 1.0 4.9 2.1 240.5 275.7 0.00 0.0000000 72.4
2020-09-27 00:30:00 77.5 23.3 37.0 77.5 77.5 2.2 2.4 1.6 149.2 203.3 0.00 0.0000000 72.3
2020-09-27 00:35:00 76.0 27.5 40.0 76.0 76.0 3.0 3.1 1.6 206.7 192.9 0.00 0.0000000 72.2
2020-09-27 00:40:00 73.4 27.8 38.1 73.4 73.4 1.7 4.4 2.8 191.6 187.0 0.00 0.0000000 72.2
2020-09-27 00:45:00 72.5 29.8 39.1 72.5 72.5 0.0 2.2 1.3 285.6 194.7 0.00 0.0000000 72.1
2020-09-27 00:50:00 72.0 30.1 38.9 72.0 72.0 0.0 1.7 0.2 120.3 52.8 0.00 0.0000000 72.1
2020-09-27 00:55:00 70.5 34.0 40.8 70.5 70.5 1.9 2.8 1.6 228.1 213.0 0.00 0.0000000 72.1
2020-09-27 01:00:00 69.5 34.7 40.4 69.5 69.5 2.8 4.0 2.3 279.1 209.3 0.00 0.0000000 72.0
2020-09-27 01:05:00 69.7 34.1 40.2 69.7 69.7 3.1 4.4 2.7 222.9 229.1 0.00 0.0000000 71.9
2020-09-27 01:10:00 69.7 34.3 40.3 69.7 69.7 0.0 3.3 2.4 246.4 232.5 0.00 0.0000000 71.9
2020-09-27 01:15:00 69.1 33.8 39.4 69.1 69.1 0.0 0.0 0.0 86.7 0.0 0.00 0.0000000 71.8
2020-09-27 01:20:00 69.3 34.6 40.2 69.3 69.3 1.5 1.7 1.0 177.1 176.2 0.00 0.0000000 71.7
2020-09-27 01:25:00 68.4 36.9 41.0 68.4 68.4 0.0 1.7 0.8 178.8 193.8 0.00 0.0000000 71.7
2020-09-27 01:30:00 68.0 35.6 39.8 68.0 68.0 0.0 0.0 0.0 54.6 0.0 0.00 0.0000000 71.7
2020-09-27 01:35:00 67.8 37.7 41.1 67.8 67.8 1.5 1.5 0.1 214.0 214.0 0.00 0.0000000 71.6
2020-09-27 01:40:00 67.2 38.8 41.3 67.2 67.2 0.0 2.6 1.4 174.9 194.8 0.00 0.0000000 71.5
2020-09-27 01:45:00 66.6 39.7 41.3 66.6 66.6 0.0 0.0 0.0 165.9 0.0 0.00 0.0000000 71.5
2020-09-27 01:50:00 66.1 40.0 41.1 66.1 66.1 0.0 0.0 0.0 222.7 0.0 0.00 0.0000000 71.4
2020-09-27 01:55:00 65.6 41.5 41.6 65.6 65.6 2.1 2.6 2.0 226.3 222.5 0.00 0.0000020 71.4
2020-09-27 02:00:00 65.5 42.2 41.9 65.5 65.5 0.0 2.4 1.8 49.0 229.9 0.00 0.0000000 71.3
2020-09-27 02:05:00 65.9 37.9 39.6 65.9 65.9 3.3 3.3 1.3 32.9 52.5 0.00 0.0000020 71.3
2020-09-27 02:10:00 67.5 34.5 38.5 67.5 67.5 0.0 3.7 2.1 18.7 25.1 0.00 0.0000040 71.2
2020-09-27 02:15:00 68.5 34.2 39.2 68.5 68.5 0.0 0.0 0.0 21.6 0.0 0.00 0.0000121 71.2
2020-09-27 02:20:00 67.4 37.8 40.8 67.4 67.4 1.7 1.7 0.3 210.9 205.2 0.00 0.0000040 71.1
2020-09-27 02:25:00 66.3 39.9 41.2 66.3 66.3 1.5 2.1 1.6 204.7 206.4 0.00 0.0000081 71.1
2020-09-27 02:30:00 65.7 39.7 40.5 65.7 65.7 0.0 1.5 0.6 205.9 204.2 0.00 0.0000141 71.0
2020-09-27 02:35:00 65.6 40.2 40.7 65.6 65.6 0.0 0.0 0.0 32.6 0.0 0.00 0.0000121 71.0
2020-09-27 02:40:00 65.2 41.7 41.4 65.2 65.2 0.0 0.0 0.0 215.7 0.0 0.00 0.0000283 70.9
2020-09-27 02:45:00 65.0 42.5 41.6 65.0 65.0 1.5 2.2 1.7 211.9 206.5 0.00 0.0000303 70.9
2020-09-27 02:50:00 64.8 41.9 41.1 64.8 64.8 1.0 2.1 1.6 214.5 207.7 0.00 0.0000182 70.8
2020-09-27 02:55:00 64.3 41.0 40.0 64.3 64.3 0.0 0.8 0.0 227.1 217.5 0.00 0.0000303 70.7
2020-09-27 03:00:00 64.1 42.8 41.0 64.1 64.1 0.0 0.0 0.0 243.8 0.0 0.00 0.0000101 70.7
2020-09-27 03:05:00 64.3 43.7 41.7 64.3 64.3 2.2 2.6 1.7 211.5 230.6 0.00 0.0000061 70.6
2020-09-27 03:10:00 63.9 43.0 40.9 63.9 63.9 2.1 2.6 2.2 231.5 222.8 0.00 0.0000000 70.6
2020-09-27 03:15:00 63.9 43.2 41.1 63.9 63.9 0.0 2.1 1.7 244.8 230.2 0.00 0.0000020 70.6
2020-09-27 03:20:00 63.4 44.8 41.5 63.4 63.4 0.0 0.0 0.0 242.9 0.0 0.00 0.0000000 70.5
2020-09-27 03:25:00 62.8 46.6 42.0 62.8 62.8 0.0 0.0 0.0 255.9 0.0 0.00 0.0000020 70.4
2020-09-27 03:30:00 63.0 45.1 41.3 63.0 63.0 2.1 2.1 1.3 250.8 248.9 0.00 0.0000000 70.4
2020-09-27 03:35:00 63.2 44.7 41.3 63.2 63.2 0.0 2.2 1.0 257.7 265.0 0.00 0.0000000 70.3
2020-09-27 03:40:00 63.4 46.3 42.5 63.4 63.4 0.0 1.5 0.8 265.9 271.6 0.00 0.0000000 70.3
2020-09-27 03:45:00 63.7 42.2 40.3 63.7 63.7 1.2 2.2 1.8 261.0 264.7 0.00 0.0000000 70.3
2020-09-27 03:50:00 64.7 39.9 39.8 64.7 64.7 1.5 1.9 1.4 273.5 270.5 0.00 0.0000000 70.2
2020-09-27 03:55:00 65.3 37.7 38.9 65.3 65.3 0.0 1.5 0.2 336.6 316.2 0.00 0.0000000 70.1
2020-09-27 04:00:00 65.8 38.2 39.7 65.8 65.8 1.9 2.6 0.7 280.6 304.4 0.00 0.0000000 70.1
2020-09-27 04:05:00 66.1 37.0 39.1 66.1 66.1 0.0 2.2 1.0 323.5 283.9 0.00 0.0000000 70.0
2020-09-27 04:10:00 65.9 37.4 39.1 65.9 65.9 1.5 2.4 0.8 261.9 305.0 0.00 0.0000000 70.0
2020-09-27 04:15:00 66.3 36.4 38.8 66.3 66.3 2.1 2.4 1.9 267.3 267.7 0.00 0.0000000 69.9
2020-09-27 04:20:00 66.3 35.4 38.1 66.3 66.3 1.2 1.9 0.5 23.2 288.7 0.00 0.0000000 69.9
2020-09-27 04:25:00 66.3 34.8 37.7 66.3 66.3 3.3 3.3 1.7 342.5 328.3 0.00 0.0000000 69.9
2020-09-27 04:30:00 66.2 35.3 38.0 66.2 66.2 0.8 3.3 1.2 2.9 304.2 0.00 0.0000000 69.8
2020-09-27 04:35:00 65.1 39.9 40.1 65.1 65.1 2.8 3.3 1.8 213.4 219.9 0.00 0.0000000 69.8
2020-09-27 04:40:00 64.5 39.7 39.4 64.5 64.5 3.0 4.2 3.5 241.7 225.4 0.00 0.0000000 69.7
2020-09-27 04:45:00 64.4 39.5 39.2 64.4 64.4 3.7 3.7 3.2 252.4 246.2 0.00 0.0000000 69.7
2020-09-27 04:50:00 64.4 40.8 40.0 64.4 64.4 3.1 4.2 3.3 246.1 240.1 0.00 0.0000000 69.6
2020-09-27 04:55:00 64.5 37.7 38.1 64.5 64.5 3.1 4.2 3.5 266.3 259.6 0.00 0.0000000 69.6
2020-09-27 05:00:00 64.7 38.9 39.1 64.7 64.7 3.7 3.7 3.3 259.4 267.2 0.00 0.0000000 69.6
2020-09-27 05:05:00 63.7 43.3 40.9 63.7 63.7 3.3 4.9 3.7 269.2 254.9 0.00 0.0000000 69.5
2020-09-27 05:10:00 62.8 45.4 41.3 62.8 62.8 5.1 5.3 4.4 252.6 257.9 0.00 0.0000000 69.5
2020-09-27 05:15:00 62.4 46.6 41.6 62.4 62.4 3.7 4.6 3.7 252.1 260.2 0.00 0.0000020 69.4
2020-09-27 05:20:00 62.2 46.4 41.4 62.2 62.2 2.8 4.2 3.3 265.6 257.0 0.00 0.0000000 69.4
2020-09-27 05:25:00 62.0 46.4 41.2 62.0 62.0 3.5 4.6 3.6 270.7 255.3 0.00 0.0000000 69.3
2020-09-27 05:30:00 62.2 45.6 40.9 62.2 62.2 3.0 4.2 3.3 250.7 253.9 0.00 0.0000000 69.3
2020-09-27 05:35:00 62.1 45.1 40.6 62.1 62.1 3.1 3.5 3.0 267.2 257.9 0.00 0.0000000 69.2
2020-09-27 05:40:00 62.3 44.1 40.2 62.3 62.3 3.3 4.0 3.4 266.8 264.4 0.00 0.0000000 69.2
2020-09-27 05:45:00 62.5 44.4 40.5 62.5 62.5 2.6 3.5 3.0 282.6 271.2 0.00 0.0000000 69.1
2020-09-27 05:50:00 62.3 43.9 40.0 62.3 62.3 3.1 3.5 3.1 273.6 268.3 0.00 0.0000000 69.1
2020-09-27 05:55:00 61.9 45.3 40.5 61.9 61.9 1.9 3.1 2.3 277.4 271.1 0.00 0.0000000 69.0
2020-09-27 06:00:00 61.9 44.1 39.8 61.9 61.9 0.0 2.4 1.2 302.6 284.5 0.00 0.0000000 69.0
2020-09-27 06:05:00 61.7 45.2 40.2 61.7 61.7 1.7 1.9 0.5 265.3 264.0 0.00 0.0000000 69.0
2020-09-27 06:10:00 62.0 44.9 40.3 62.0 62.0 0.0 1.9 0.7 244.6 261.0 0.00 0.0000000 68.9
2020-09-27 06:15:00 61.6 45.8 40.5 61.6 61.6 2.4 2.6 1.1 245.5 239.8 0.00 0.0000000 68.9
2020-09-27 06:20:00 61.4 46.4 40.6 61.4 61.4 0.0 2.6 1.1 227.7 245.2 0.00 0.0000000 68.8
2020-09-27 06:25:00 60.7 47.8 40.8 60.7 60.7 3.0 3.0 1.0 217.3 223.1 0.00 0.0000000 68.8
2020-09-27 06:30:00 60.5 48.9 41.2 60.5 60.5 1.5 3.1 2.4 216.3 215.1 0.00 0.0000000 68.7
2020-09-27 06:35:00 60.4 49.6 41.5 60.4 60.4 1.7 2.6 2.0 236.8 229.5 0.00 0.0000000 68.7
2020-09-27 06:40:00 60.2 50.4 41.7 60.2 60.2 0.0 2.4 1.6 275.9 241.3 0.00 0.0000121 68.7
2020-09-27 06:45:00 59.6 52.0 41.9 59.6 59.6 0.0 0.0 0.0 222.4 0.0 0.00 0.0001293 68.6
2020-09-27 06:50:00 59.6 52.9 42.4 59.6 59.6 0.0 0.0 0.0 225.1 0.0 0.00 0.0003233 68.6
2020-09-27 06:55:00 59.1 51.9 41.5 59.1 59.1 0.0 0.0 0.0 230.4 0.0 0.00 0.0006487 68.5
2020-09-27 07:00:00 58.9 51.9 41.3 58.9 58.9 0.0 0.0 0.0 221.9 0.0 0.00 0.0011964 68.5
2020-09-27 07:05:00 58.6 54.5 42.2 58.6 58.6 1.7 2.4 0.6 217.5 219.0 0.00 0.0020049 68.4
2020-09-27 07:10:00 58.3 51.6 40.6 58.3 58.3 2.2 2.2 1.1 329.8 261.3 0.00 0.0030619 68.4
2020-09-27 07:15:00 58.5 53.3 41.6 58.5 58.5 0.0 2.4 0.7 279.4 286.6 0.00 0.0043977 68.3
2020-09-27 07:20:00 60.1 48.5 40.6 60.1 60.1 2.1 2.1 0.9 247.8 266.5 0.00 0.0085450 68.3
2020-09-27 07:25:00 60.3 50.7 41.9 60.3 60.3 2.4 3.1 2.4 225.0 227.5 0.00 0.0122598 68.3
2020-09-27 07:30:00 60.5 48.7 41.1 60.5 60.5 0.0 2.2 0.9 220.5 225.8 0.00 0.0166618 68.2
2020-09-27 07:35:00 61.0 47.8 41.0 61.0 61.0 0.0 0.0 0.0 219.7 0.0 0.00 0.0217515 68.2
2020-09-27 07:40:00 61.7 49.0 42.4 61.7 61.7 1.2 1.7 0.7 237.6 246.2 0.00 0.0272533 68.1
2020-09-27 07:45:00 62.3 48.7 42.7 62.3 62.3 0.0 1.7 1.0 209.4 221.7 0.00 0.0330192 68.1
2020-09-27 07:50:00 63.0 47.5 42.7 63.0 63.0 0.0 1.0 0.0 241.1 231.7 0.00 0.0379806 68.1
2020-09-27 07:55:00 63.9 47.6 43.6 63.9 63.9 1.2 1.9 0.4 239.2 239.9 0.00 0.0428408 68.0
2020-09-27 08:00:00 64.5 41.9 40.9 64.5 64.5 0.0 1.0 0.1 290.5 240.7 0.00 0.0477641 68.0
2020-09-27 08:05:00 65.5 43.5 42.7 65.5 65.5 2.4 2.4 1.1 251.6 244.1 0.00 0.0528010 68.0
2020-09-27 08:10:00 65.8 42.2 42.2 65.8 65.8 2.4 3.0 2.5 258.3 247.6 0.00 0.0577585 67.9
2020-09-27 08:15:00 66.8 40.1 41.8 66.8 66.8 1.0 2.1 0.6 303.1 252.7 0.00 0.0629230 67.9
2020-09-27 08:20:00 68.0 37.0 40.8 68.0 68.0 0.0 1.7 0.6 296.9 258.9 0.00 0.0681356 67.9
2020-09-27 08:25:00 68.9 36.2 41.0 68.9 68.9 0.0 1.0 0.1 264.2 271.0 0.00 0.0735505 67.9
2020-09-27 08:30:00 69.7 33.3 39.5 69.7 69.7 1.5 2.2 1.2 284.3 272.3 0.00 0.0789371 67.9
2020-09-27 08:35:00 70.9 30.8 38.6 70.9 70.9 3.0 3.5 1.9 259.4 311.0 0.00 0.0838293 67.9
2020-09-27 08:40:00 71.7 30.3 38.9 71.7 71.7 3.1 3.1 2.0 276.3 258.2 0.00 0.0887561 67.8
2020-09-27 08:45:00 72.2 33.9 42.2 72.2 72.2 3.3 4.2 2.9 257.4 251.2 0.00 0.0941482 67.8
2020-09-27 08:50:00 71.7 35.7 43.1 71.7 71.7 3.7 4.7 4.0 241.8 246.3 0.00 0.0997209 67.8
2020-09-27 08:55:00 71.5 34.6 42.2 71.5 71.5 3.3 5.3 4.0 261.5 245.6 0.00 0.1054922 67.8
2020-09-27 09:00:00 71.8 39.8 46.1 71.8 71.8 3.5 5.3 3.7 248.4 248.2 0.00 0.1113510 67.8
2020-09-27 09:05:00 72.1 36.6 44.1 72.1 72.1 3.3 4.6 3.4 273.8 253.1 0.00 0.1165949 67.8
2020-09-27 09:10:00 73.2 33.9 43.1 73.2 73.2 3.5 4.7 3.5 282.5 259.9 0.00 0.1219198 67.8
2020-09-27 09:15:00 74.1 33.1 43.3 74.1 74.1 2.4 4.2 3.2 267.8 257.3 0.00 0.1269480 67.8
2020-09-27 09:20:00 75.1 33.8 44.7 75.1 75.1 1.5 4.2 2.8 285.5 255.0 0.00 0.1304570 67.8
2020-09-27 09:25:00 77.2 27.9 41.5 77.2 77.2 2.1 4.9 2.9 258.9 301.4 0.00 0.1372375 67.8
2020-09-27 09:30:00 77.7 25.9 40.0 77.7 77.7 3.3 4.9 2.8 235.9 265.9 0.00 0.1421546 67.8
2020-09-27 09:35:00 78.7 26.6 41.5 78.7 78.7 2.2 4.7 2.6 3.6 292.5 0.00 0.1470906 67.9
2020-09-27 09:40:00 80.0 21.3 36.9 80.0 80.0 5.6 6.3 3.8 330.3 337.8 0.00 0.1519078 67.9
2020-09-27 09:45:00 80.9 20.2 36.3 80.9 80.9 6.2 8.3 6.8 26.8 345.1 0.00 0.1566982 67.9
2020-09-27 09:50:00 80.9 19.3 35.2 80.9 80.9 4.7 9.2 6.4 19.8 11.1 0.00 0.1611142 67.9
2020-09-27 09:55:00 81.1 19.0 34.9 81.1 81.1 7.1 9.0 6.6 35.8 22.5 0.00 0.1656978 68.0
2020-09-27 10:00:00 81.5 19.7 36.2 81.5 81.5 7.4 7.4 5.8 19.8 24.5 0.00 0.1705168 68.0
2020-09-27 10:05:00 81.6 18.9 35.2 81.6 81.6 3.0 8.3 5.8 27.7 10.7 0.00 0.1748796 68.1
2020-09-27 10:10:00 82.1 19.2 36.1 82.1 82.1 4.6 8.5 6.0 21.6 357.4 0.00 0.1792846 68.1
2020-09-27 10:15:00 82.4 19.2 36.3 82.4 82.4 5.6 6.3 5.0 26.7 15.6 0.00 0.1831091 68.1
2020-09-27 10:20:00 83.0 20.7 38.6 83.0 83.0 5.6 7.1 4.7 316.9 351.9 0.00 0.1872871 68.2
2020-09-27 10:25:00 82.5 19.6 36.9 82.5 82.5 2.8 7.2 5.0 29.9 354.7 0.00 0.1911044 68.3
2020-09-27 10:30:00 83.0 18.8 36.2 83.0 83.0 3.1 5.1 3.3 318.1 7.7 0.00 0.1948341 68.4
2020-09-27 10:35:00 83.6 18.9 36.9 83.6 83.6 4.9 7.1 3.7 0.5 345.9 0.00 0.1984704 68.4
2020-09-27 10:40:00 84.4 18.9 37.4 84.4 84.4 3.8 6.3 3.1 29.8 324.8 0.00 0.2025855 68.5
2020-09-27 10:45:00 85.0 18.1 36.9 85.0 85.0 4.6 6.5 4.4 332.3 343.2 0.00 0.2063422 68.6
2020-09-27 10:50:00 84.8 18.3 37.0 84.8 84.8 3.8 6.3 4.4 334.5 6.9 0.00 0.2098180 68.7
2020-09-27 10:55:00 84.2 18.9 37.3 84.2 84.2 3.1 6.5 4.7 0.1 3.4 0.00 0.2129398 68.8
2020-09-27 11:00:00 85.1 19.1 38.3 85.1 85.1 2.1 4.9 3.5 299.1 328.2 0.00 0.2159342 68.9
2020-09-27 11:05:00 85.2 16.6 34.8 85.2 85.2 4.0 7.6 3.9 10.6 336.6 0.00 0.2193302 69.0
2020-09-27 11:10:00 85.9 16.0 34.6 85.9 85.9 1.3 6.7 3.1 71.6 336.3 0.00 0.2227469 69.1
2020-09-27 11:15:00 86.4 15.6 34.2 86.4 86.4 3.7 5.8 3.0 284.6 322.5 0.00 0.2255374 69.2
2020-09-27 11:20:00 86.5 15.5 34.2 86.5 86.5 4.9 5.5 2.7 339.4 274.9 0.00 0.2284590 69.3
2020-09-27 11:25:00 87.4 13.7 31.9 87.4 87.4 4.4 8.3 4.8 21.6 335.6 0.00 0.2310763 69.4
2020-09-27 11:30:00 87.5 14.9 34.0 87.5 87.5 3.0 7.6 4.1 0.5 323.6 0.00 0.2334462 69.5
2020-09-27 11:35:00 88.0 13.8 32.5 88.0 88.0 4.6 8.3 4.9 1.6 337.8 0.00 0.2355229 69.6
2020-09-27 11:40:00 87.1 14.2 32.5 87.1 87.1 2.1 8.7 4.8 22.0 314.6 0.00 0.2376051 69.7
2020-09-27 11:45:00 87.4 13.6 31.6 87.4 87.4 3.3 6.2 3.6 5.0 277.3 0.00 0.2401222 69.9
2020-09-27 11:50:00 87.7 13.9 32.4 87.7 87.7 3.7 8.7 4.5 261.6 281.8 0.00 0.2421484 70.0
2020-09-27 11:55:00 87.3 15.7 35.1 87.3 87.3 1.0 4.7 3.3 266.4 251.7 0.00 0.2436236 70.1
2020-09-27 12:00:00 87.9 14.4 33.4 87.9 87.9 3.3 5.3 2.6 1.5 10.6 0.00 0.2449310 70.2
2020-09-27 12:05:00 87.4 14.1 32.5 87.4 87.4 2.2 8.3 5.4 126.6 28.9 0.00 0.2462377 70.4
2020-09-27 12:10:00 88.5 15.7 36.2 88.5 88.5 4.0 6.5 3.5 255.7 343.6 0.00 0.2473408 70.5
2020-09-27 12:15:00 88.3 14.3 33.5 88.3 88.3 3.5 7.8 5.3 236.1 242.1 0.00 0.2490339 70.7
2020-09-27 12:20:00 88.0 14.2 33.1 88.0 88.0 2.6 6.3 3.5 190.9 247.4 0.00 0.2501419 70.8
2020-09-27 12:25:00 88.9 14.6 34.5 88.9 88.9 3.8 7.1 3.8 194.1 213.4 0.00 0.2512787 71.0
2020-09-27 12:30:00 88.9 15.0 35.3 88.9 88.9 3.0 6.0 3.9 173.6 202.0 0.00 0.2519129 71.1
2020-09-27 12:35:00 89.5 14.2 34.3 89.5 89.5 0.8 5.6 2.9 111.9 183.6 0.00 0.2523945 71.3
2020-09-27 12:40:00 90.5 13.2 33.4 90.5 90.5 3.8 6.2 2.2 184.4 162.2 0.00 0.2530991 71.5
2020-09-27 12:45:00 91.5 13.0 33.7 91.5 91.5 3.1 6.9 4.0 150.5 186.3 0.00 0.2536488 71.6
2020-09-27 12:50:00 91.5 13.0 33.6 91.5 91.5 1.5 4.0 2.0 233.1 262.1 0.00 0.2540343 71.8
2020-09-27 12:55:00 91.3 12.7 33.0 91.3 91.3 5.1 5.8 3.9 335.4 3.2 0.00 0.2546203 71.9
2020-09-27 13:00:00 90.7 12.9 33.0 90.7 90.7 3.1 6.3 4.3 12.6 2.3 0.00 0.2546628 72.1
2020-09-27 13:05:00 90.6 12.9 32.9 90.6 90.6 5.1 6.3 4.2 90.4 41.3 0.00 0.2544042 72.2
2020-09-27 13:10:00 90.4 12.6 32.0 90.4 90.4 3.5 7.8 4.1 0.4 43.5 0.00 0.2542322 72.3
2020-09-27 13:15:00 90.7 12.5 32.0 90.7 90.7 1.2 4.7 2.5 94.2 257.1 0.00 0.2538144 72.4
2020-09-27 13:20:00 92.1 12.3 32.8 92.1 92.1 6.0 6.0 1.7 336.7 88.4 0.00 0.2534365 72.5
2020-09-27 13:25:00 92.6 12.7 34.1 92.6 92.6 4.9 6.7 4.3 287.3 349.9 0.00 0.2527044 72.6
2020-09-27 13:30:00 91.5 12.2 32.1 91.5 91.5 4.9 9.6 5.3 113.3 260.0 0.00 0.2525895 72.6
2020-09-27 13:35:00 93.2 11.7 32.5 93.2 93.2 3.5 8.3 4.9 139.8 147.1 0.00 0.2518228 72.7
2020-09-27 13:40:00 93.2 12.0 33.1 93.2 93.2 4.0 4.7 3.3 103.9 103.8 0.00 0.2499945 72.8
2020-09-27 13:45:00 94.7 12.5 35.2 94.7 94.7 3.5 4.2 2.6 243.6 347.2 0.00 0.2494482 72.9
2020-09-27 13:50:00 94.4 13.4 36.8 94.4 94.4 7.6 10.6 4.9 232.9 267.6 0.00 0.2480460 73.0
2020-09-27 13:55:00 94.7 10.9 31.9 94.7 94.7 3.0 11.3 6.4 341.0 321.9 0.00 0.2462763 73.1
2020-09-27 14:00:00 94.8 9.5 28.4 94.8 94.8 8.1 10.8 6.4 18.1 342.9 0.00 0.2450624 73.3
2020-09-27 14:05:00 94.7 9.3 28.0 94.7 94.7 2.4 10.8 5.9 336.4 283.9 0.00 0.2441647 73.5
2020-09-27 14:10:00 93.8 9.4 27.5 93.8 93.8 3.0 10.1 5.9 85.4 268.0 0.00 0.2427817 73.6
2020-09-27 14:15:00 94.7 8.9 26.9 94.7 94.7 6.5 9.0 5.8 253.8 271.9 0.00 0.2408482 73.8
2020-09-27 14:20:00 95.1 8.8 26.9 95.1 95.1 8.5 13.9 6.4 305.7 268.4 0.00 0.2385276 73.9
2020-09-27 14:25:00 94.6 9.6 28.5 94.6 94.6 10.1 11.9 8.1 237.0 264.1 0.00 0.2369209 74.1
2020-09-27 14:30:00 94.4 8.7 26.2 94.4 94.4 6.3 9.9 6.2 266.4 262.0 0.00 0.2343399 74.3
2020-09-27 14:35:00 95.5 8.4 26.0 95.5 95.5 6.5 10.8 6.8 267.1 288.2 0.00 0.2316537 74.4
2020-09-27 14:40:00 94.7 8.7 26.3 94.7 94.7 5.3 10.8 6.7 292.3 269.3 0.00 0.2301590 74.6
2020-09-27 14:45:00 95.5 8.0 24.9 95.5 95.5 6.2 9.9 5.6 217.4 294.5 0.00 0.2274824 74.8
2020-09-27 14:50:00 95.2 8.5 26.2 95.2 95.2 6.2 9.4 5.7 224.8 281.5 0.00 0.2245890 74.9
2020-09-27 14:55:00 94.6 9.7 28.9 94.6 94.6 8.0 13.5 8.5 257.7 246.0 0.00 0.2220156 75.1
2020-09-27 15:00:00 94.6 8.8 26.6 94.6 94.6 6.2 16.2 10.0 339.1 260.9 0.00 0.2183547 75.2
2020-09-27 15:05:00 95.4 9.2 28.2 95.4 95.4 5.1 9.9 5.5 247.7 270.0 0.00 0.2152759 75.4
2020-09-27 15:10:00 96.0 8.9 28.0 96.0 96.0 10.3 11.5 5.8 12.7 287.7 0.00 0.2121568 75.5
2020-09-27 15:15:00 94.9 9.6 28.9 94.9 94.9 4.4 12.4 7.7 311.9 348.4 0.00 0.2076943 75.6
2020-09-27 15:20:00 95.1 9.1 27.6 95.1 95.1 11.2 13.5 9.3 25.5 356.5 0.00 0.2031540 75.7
2020-09-27 15:25:00 94.6 9.6 28.5 94.6 94.6 6.7 12.2 8.2 19.7 13.5 0.00 0.1995733 75.9
2020-09-27 15:30:00 94.6 9.5 28.4 94.6 94.6 6.5 14.7 9.2 331.3 341.8 0.00 0.1953492 76.0
2020-09-27 15:35:00 94.7 9.9 29.4 94.7 94.7 7.2 14.4 8.9 14.9 348.4 0.00 0.1916794 76.1
2020-09-27 15:40:00 94.9 9.4 28.4 94.9 94.9 12.1 13.5 7.7 337.9 10.7 0.00 0.1874159 76.2
2020-09-27 15:45:00 94.9 9.8 29.4 94.9 94.9 8.1 12.1 6.7 319.8 322.1 0.00 0.1838704 76.4
2020-09-27 15:50:00 94.8 9.6 28.8 94.8 94.8 8.3 9.7 6.5 33.1 336.9 0.00 0.1795351 76.5
2020-09-27 15:55:00 94.8 9.2 27.9 94.8 94.8 5.1 13.5 9.2 340.7 347.1 0.00 0.1754996 76.6
2020-09-27 16:00:00 95.1 9.3 28.2 95.1 95.1 6.2 13.3 6.8 324.0 336.2 0.00 0.1710598 76.7
2020-09-27 16:05:00 95.1 9.3 28.2 95.1 95.1 4.2 14.4 7.8 313.1 323.5 0.00 0.1667953 76.8
2020-09-27 16:10:00 95.7 9.0 27.9 95.7 95.7 7.6 8.3 4.6 319.3 311.6 0.00 0.1627390 77.0
2020-09-27 16:15:00 95.3 9.0 27.6 95.3 95.3 7.4 11.5 7.1 13.1 337.8 0.00 0.1584110 77.1
2020-09-27 16:20:00 95.3 9.0 27.5 95.3 95.3 6.7 9.7 6.7 336.5 332.3 0.00 0.1536401 77.2
2020-09-27 16:25:00 95.8 8.4 26.3 95.8 95.8 8.7 10.8 6.3 322.7 322.2 0.00 0.1492004 77.3
2020-09-27 16:30:00 95.4 8.8 27.0 95.4 95.4 14.9 14.9 8.1 27.0 339.3 0.00 0.1442812 77.3
2020-09-27 16:35:00 94.7 8.8 26.5 94.7 94.7 15.8 17.8 13.4 170.6 343.5 0.00 0.1393996 77.4
2020-09-27 16:40:00 94.2 8.9 26.4 94.2 94.2 7.8 15.5 11.3 340.7 346.9 0.00 0.1342152 77.5
2020-09-27 16:45:00 94.5 9.0 27.0 94.5 94.5 3.5 17.6 9.1 304.5 339.2 0.00 0.1289263 77.5
2020-09-27 16:50:00 94.7 8.8 26.6 94.7 94.7 8.1 13.1 7.6 333.1 330.7 0.00 0.1240778 77.6
2020-09-27 16:55:00 95.2 8.6 26.3 95.2 95.2 12.6 14.0 10.1 326.9 350.3 0.00 0.1193396 77.7
2020-09-27 17:00:00 94.7 8.9 27.0 94.7 94.7 8.1 15.3 8.9 315.0 335.0 0.00 0.1138411 77.7
2020-09-27 17:05:00 94.2 9.3 27.4 94.2 94.2 4.0 12.1 7.7 0.3 339.1 0.00 0.1086859 77.8
2020-09-27 17:10:00 94.8 8.9 27.0 94.8 94.8 9.2 13.9 7.7 339.2 335.1 0.00 0.1018225 77.8
2020-09-27 17:15:00 94.1 9.0 26.7 94.1 94.1 7.1 12.6 8.2 324.1 355.2 0.00 0.0956008 77.8
2020-09-27 17:20:00 93.9 9.2 27.1 93.9 93.9 7.8 13.9 8.7 329.5 360.0 0.00 0.0868279 77.9
2020-09-27 17:25:00 94.1 9.3 27.6 94.1 94.1 5.6 9.6 7.0 19.5 355.0 0.00 0.0832015 77.9
2020-09-27 17:30:00 93.8 9.2 26.9 93.8 93.8 4.9 10.6 7.5 18.6 3.8 0.00 0.0792017 77.9
2020-09-27 17:35:00 93.8 9.0 26.4 93.8 93.8 6.7 9.6 5.9 316.4 354.9 0.00 0.0662311 77.9
2020-09-27 17:40:00 93.7 9.5 27.7 93.7 93.7 8.5 9.6 5.2 339.0 329.5 0.00 0.0628217 77.9
2020-09-27 17:45:00 93.7 9.2 27.0 93.7 93.7 6.3 11.5 7.2 340.1 337.7 0.00 0.0620015 77.9
2020-09-27 17:50:00 93.5 9.2 26.7 93.5 93.5 4.2 10.6 7.4 9.2 346.3 0.00 0.0598378 77.9
2020-09-27 17:55:00 93.8 9.1 26.7 93.8 93.8 6.2 9.9 6.5 10.5 358.2 0.00 0.0535616 77.9
2020-09-27 18:00:00 93.5 9.2 26.9 93.5 93.5 4.9 8.8 5.6 329.9 338.9 0.00 0.0491584 77.9
2020-09-27 18:05:00 93.5 9.4 27.3 93.5 93.5 2.4 6.3 4.3 334.5 347.7 0.00 0.0445363 77.9
2020-09-27 18:10:00 93.4 9.1 26.4 93.4 93.4 2.8 3.8 1.7 341.6 277.0 0.00 0.0381237 77.9
2020-09-27 18:15:00 94.0 9.2 27.1 94.0 94.0 1.9 1.9 1.1 317.5 318.8 0.00 0.0351252 77.9
2020-09-27 18:20:00 94.1 10.0 29.2 94.1 94.1 0.8 2.2 1.1 225.6 302.5 0.00 0.0290703 77.8
2020-09-27 18:25:00 93.1 12.4 33.7 93.1 93.1 0.0 0.8 0.0 202.2 269.3 0.00 0.0233533 77.8
2020-09-27 18:30:00 91.3 10.1 27.4 91.3 91.3 0.8 2.6 0.8 109.3 211.1 0.00 0.0177600 77.8
2020-09-27 18:35:00 90.8 14.0 35.1 90.8 90.8 0.0 1.3 0.5 160.7 124.7 0.00 0.0128398 77.8
2020-09-27 18:40:00 88.0 15.7 35.7 88.0 88.0 3.0 3.1 1.9 226.5 231.0 0.00 0.0088497 77.7
2020-09-27 18:45:00 85.9 18.2 37.8 85.9 85.9 1.9 2.8 2.0 208.7 215.8 0.00 0.0044966 77.7
2020-09-27 18:50:00 85.1 17.2 35.6 85.1 85.1 1.2 1.7 1.4 181.9 205.8 0.00 0.0031363 77.6
2020-09-27 18:55:00 84.0 19.2 37.5 84.0 84.0 1.7 1.9 1.4 207.7 196.0 0.00 0.0021211 77.6
2020-09-27 19:00:00 82.3 21.1 38.5 82.3 82.3 2.8 2.8 1.9 202.5 201.2 0.00 0.0012775 77.5
2020-09-27 19:05:00 81.6 21.3 38.2 81.6 81.6 3.7 6.5 4.2 207.0 213.4 0.00 0.0007225 77.4
2020-09-27 19:10:00 83.0 21.1 39.1 83.0 83.0 3.0 5.5 4.1 218.2 213.4 0.00 0.0003734 77.4
2020-09-27 19:15:00 83.3 18.9 36.5 83.3 83.3 3.0 4.7 3.2 296.6 204.3 0.00 0.0001453 77.3
2020-09-27 19:20:00 83.5 18.7 36.6 83.5 83.5 4.4 6.2 4.0 234.5 235.4 0.00 0.0000606 77.3
2020-09-27 19:25:00 86.1 14.4 32.1 86.1 86.1 4.2 8.3 5.4 274.8 246.7 0.00 0.0000424 77.1
2020-09-27 19:30:00 87.8 14.8 34.1 87.8 87.8 2.4 6.2 4.3 229.3 248.4 0.00 0.0000040 77.1
2020-09-27 19:35:00 86.2 16.2 35.1 86.2 86.2 0.8 2.8 1.8 194.5 216.4 0.00 0.0000020 77.0
2020-09-27 19:40:00 83.8 20.0 38.4 83.8 83.8 1.2 2.8 1.4 241.1 212.8 0.00 0.0000000 76.9
2020-09-27 19:45:00 82.4 19.5 36.7 82.4 82.4 1.9 2.2 0.9 209.0 205.4 0.00 0.0000000 76.9
2020-09-27 19:50:00 84.3 16.7 34.2 84.3 84.3 3.8 7.4 3.7 233.1 243.6 0.00 0.0000000 76.8
2020-09-27 19:55:00 83.8 17.6 35.2 83.8 83.8 1.3 3.3 1.7 211.5 245.4 0.00 0.0000020 76.7
2020-09-27 20:00:00 82.8 18.6 35.8 82.8 82.8 1.3 2.4 1.6 141.5 206.0 0.00 0.0000000 76.6
2020-09-27 20:05:00 81.0 20.4 36.6 81.0 81.0 0.0 2.4 0.6 235.3 184.9 0.00 0.0000000 76.5
2020-09-27 20:10:00 80.4 20.0 35.7 80.4 80.4 0.0 1.2 0.2 285.3 235.6 0.00 0.0000000 76.4
2020-09-27 20:15:00 80.1 20.3 35.7 80.1 80.1 0.0 1.0 0.2 275.1 191.5 0.00 0.0000000 76.4
2020-09-27 20:20:00 79.8 20.1 35.3 79.8 79.8 3.0 3.3 1.4 243.9 227.9 0.00 0.0000000 76.3
2020-09-27 20:25:00 79.9 20.1 35.3 79.9 79.9 0.0 3.7 1.3 202.1 222.6 0.00 0.0000000 76.2
2020-09-27 20:30:00 79.7 21.0 36.4 79.7 79.7 0.0 0.8 0.0 242.0 25.6 0.00 0.0000000 76.1
2020-09-27 20:35:00 79.2 21.0 35.9 79.2 79.2 0.8 0.8 0.0 165.8 165.8 0.00 0.0000000 76.0
2020-09-27 20:40:00 78.5 21.8 36.2 78.5 78.5 1.2 1.5 0.4 161.1 169.2 0.00 0.0000020 75.9
2020-09-27 20:45:00 77.4 23.3 37.0 77.4 77.4 0.0 0.8 0.0 215.1 172.3 0.00 0.0000020 75.9
2020-09-27 20:50:00 77.1 23.6 37.1 77.1 77.1 0.0 1.2 0.1 19.0 192.2 0.00 0.0000061 75.8
2020-09-27 20:55:00 76.6 22.5 35.5 76.6 76.6 2.1 2.1 0.7 90.3 111.9 0.00 0.0000162 75.7
2020-09-27 21:00:00 77.7 22.3 36.1 77.7 77.7 1.2 2.6 0.9 201.2 104.5 0.00 0.0000283 75.6
2020-09-27 21:05:00 78.0 19.6 33.2 78.0 78.0 0.0 2.1 0.6 45.2 63.7 0.00 0.0000384 75.5
2020-09-27 21:10:00 79.1 18.0 32.0 79.1 79.1 2.1 2.8 1.6 89.0 59.7 0.00 0.0000424 75.4

Data is courtesy of the NM Climate Center. DO NOT USE IN LEGAL PROCEEDINGS.